createdAt,value
2019-03-30T00:00:01.089Z,20
2019-03-30T00:01:01.092Z,18
2019-03-30T00:04:01.087Z,20
2019-03-30T00:05:01.093Z,18
2019-03-30T00:06:01.089Z,17
2019-03-30T00:08:01.090Z,16
2019-03-30T00:09:01.090Z,14
2019-03-30T00:11:01.088Z,15
2019-03-30T00:12:01.114Z,17
2019-03-30T00:15:01.090Z,18
2019-03-30T00:16:01.087Z,16
2019-03-30T00:17:01.120Z,15
2019-03-30T00:18:01.087Z,16
2019-03-30T00:20:01.090Z,17
2019-03-30T00:21:02.054Z,16
2019-03-30T00:22:01.088Z,17
2019-03-30T00:23:01.088Z,16
2019-03-30T00:24:01.090Z,14
2019-03-30T00:25:01.090Z,13
2019-03-30T00:26:01.088Z,15
2019-03-30T00:29:01.088Z,18
2019-03-30T00:30:01.089Z,18
2019-03-30T00:33:01.118Z,19
2019-03-30T00:34:01.094Z,16
2019-03-30T00:36:01.107Z,14
2019-03-30T00:38:01.116Z,15
2019-03-30T00:39:01.089Z,16
2019-03-30T00:40:01.101Z,17
2019-03-30T00:41:01.095Z,19
2019-03-30T00:42:01.094Z,18
2019-03-30T00:44:01.118Z,19
2019-03-30T00:45:01.093Z,19
2019-03-30T00:46:01.125Z,18
2019-03-30T00:47:01.097Z,16
2019-03-30T00:48:01.093Z,15
2019-03-30T00:49:03.317Z,13
2019-03-30T00:50:01.095Z,14
2019-03-30T00:51:01.119Z,15
2019-03-30T00:52:01.093Z,16
2019-03-30T00:53:01.092Z,17
2019-03-30T00:55:01.118Z,18
2019-03-30T00:56:01.096Z,15
2019-03-30T00:58:01.095Z,16
2019-03-30T01:00:01.126Z,15
2019-03-30T01:01:01.094Z,16
2019-03-30T01:04:01.098Z,18
2019-03-30T01:05:01.124Z,19
2019-03-30T01:06:01.095Z,20
2019-03-30T01:11:01.094Z,21
2019-03-30T01:13:01.101Z,19
2019-03-30T01:16:01.094Z,17
2019-03-30T01:17:01.080Z,16
2019-03-30T01:18:01.084Z,15
2019-03-30T01:19:01.082Z,16
2019-03-30T01:20:02.959Z,15
2019-03-30T01:22:01.108Z,14
2019-03-30T01:24:01.085Z,15
2019-03-30T01:25:01.085Z,16
2019-03-30T01:28:01.417Z,18
2019-03-30T01:30:01.093Z,18
2019-03-30T01:31:01.090Z,19
2019-03-30T01:32:01.111Z,20
2019-03-30T01:33:01.086Z,19
2019-03-30T01:34:01.088Z,20
2019-03-30T01:37:01.111Z,18
2019-03-30T01:39:01.090Z,15
2019-03-30T01:40:01.095Z,14
2019-03-30T01:41:01.091Z,13
2019-03-30T01:42:01.116Z,14
2019-03-30T01:44:01.126Z,16
2019-03-30T01:45:01.095Z,16
2019-03-30T01:49:01.123Z,14
2019-03-30T01:50:01.092Z,15
2019-03-30T01:51:01.092Z,14
2019-03-30T01:53:01.111Z,15
2019-03-30T01:54:01.118Z,16
2019-03-30T01:55:01.097Z,14
2019-03-30T02:00:01.115Z,15
2019-03-30T02:01:02.997Z,17
2019-03-30T02:02:01.128Z,19
2019-03-30T02:05:01.097Z,20
2019-03-30T02:06:01.097Z,21
2019-03-30T02:07:01.123Z,20
2019-03-30T02:08:01.099Z,19
2019-03-30T02:09:01.097Z,20
2019-03-30T02:10:01.103Z,19
2019-03-30T02:11:01.099Z,18
2019-03-30T02:12:01.125Z,16
2019-03-30T02:13:01.097Z,15
2019-03-30T02:15:01.102Z,14
2019-03-30T02:17:01.238Z,15
2019-03-30T02:19:01.102Z,16
2019-03-30T02:20:01.104Z,17
2019-03-30T02:21:01.098Z,16
2019-03-30T02:22:01.917Z,17
2019-03-30T02:27:01.109Z,18
2019-03-30T02:28:01.081Z,17
2019-03-30T02:30:01.087Z,18
2019-03-30T02:31:01.087Z,17
2019-03-30T02:32:01.126Z,16
2019-03-30T02:33:01.090Z,17
2019-03-30T02:34:01.088Z,16
2019-03-30T02:36:01.092Z,15
2019-03-30T02:37:01.119Z,18
2019-03-30T02:38:01.085Z,19
2019-03-30T02:39:01.110Z,20
2019-03-30T02:40:01.091Z,22
2019-03-30T02:42:01.090Z,19
2019-03-30T02:43:01.117Z,18
2019-03-30T02:44:01.264Z,17
2019-03-30T02:45:01.084Z,14
2019-03-30T02:46:01.082Z,15
2019-03-30T02:47:01.082Z,17
2019-03-30T02:48:01.093Z,16
2019-03-30T02:49:01.082Z,17
2019-03-30T02:50:01.113Z,20
2019-03-30T02:51:01.093Z,19
2019-03-30T02:53:01.759Z,21
2019-03-30T02:55:01.135Z,20
2019-03-30T02:56:01.085Z,22
2019-03-30T02:58:01.086Z,21
2019-03-30T02:59:01.088Z,20
2019-03-30T03:00:01.087Z,19
2019-03-30T03:01:01.178Z,18
2019-03-30T03:02:01.088Z,16
2019-03-30T03:03:01.089Z,15
2019-03-30T03:07:01.093Z,16
2019-03-30T03:09:01.092Z,18
2019-03-30T03:10:01.117Z,17
2019-03-30T03:11:01.121Z,16
2019-03-30T03:12:01.094Z,17
2019-03-30T03:13:01.092Z,16
2019-03-30T03:14:01.093Z,15
2019-03-30T03:15:01.103Z,16
2019-03-30T03:17:01.126Z,15
2019-03-30T03:18:01.097Z,17
2019-03-30T03:19:01.097Z,18
2019-03-30T03:21:07.677Z,17
2019-03-30T03:22:02.173Z,18
2019-03-30T03:24:01.100Z,17
2019-03-30T03:27:01.121Z,15
2019-03-30T03:28:01.096Z,14
2019-03-30T03:29:01.098Z,15
2019-03-30T03:30:01.255Z,14
2019-03-30T03:32:01.127Z,17
2019-03-30T03:33:01.097Z,18
2019-03-30T03:34:01.103Z,17
2019-03-30T03:35:01.095Z,18
2019-03-30T03:37:01.130Z,17
2019-03-30T03:38:01.097Z,16
2019-03-30T03:39:01.100Z,17
2019-03-30T03:41:01.099Z,18
2019-03-30T03:44:01.105Z,17
2019-03-30T03:45:01.099Z,17
2019-03-30T03:46:01.097Z,15
2019-03-30T03:53:01.113Z,14
2019-03-30T03:54:01.092Z,15
2019-03-30T03:55:01.084Z,16
2019-03-30T03:56:01.084Z,17
2019-03-30T03:57:01.084Z,18
2019-03-30T03:59:01.109Z,17
2019-03-30T04:00:01.085Z,17
2019-03-30T04:01:01.165Z,16
2019-03-30T04:03:01.085Z,17
2019-03-30T04:07:01.086Z,18
2019-03-30T04:09:01.113Z,16
2019-03-30T04:10:01.088Z,15
2019-03-30T04:11:01.095Z,16
2019-03-30T04:12:01.088Z,15
2019-03-30T04:13:01.088Z,13
2019-03-30T04:14:01.122Z,17
2019-03-30T04:15:01.088Z,18
2019-03-30T04:16:01.142Z,20
2019-03-30T04:17:01.092Z,19
2019-03-30T04:18:01.088Z,20
2019-03-30T04:19:01.089Z,18
2019-03-30T04:21:01.087Z,17
2019-03-30T04:22:01.091Z,18
2019-03-30T04:24:01.087Z,20
2019-03-30T04:25:01.099Z,18
2019-03-30T04:27:01.100Z,20
2019-03-30T04:28:01.098Z,21
2019-03-30T04:29:01.096Z,20
2019-03-30T04:30:01.092Z,20
2019-03-30T04:31:01.091Z,19
2019-03-30T04:32:01.088Z,17
2019-03-30T04:33:01.091Z,15
2019-03-30T04:34:01.090Z,16
2019-03-30T04:36:01.090Z,17
2019-03-30T04:38:01.093Z,18
2019-03-30T04:39:01.088Z,16
2019-03-30T04:40:01.111Z,15
2019-03-30T04:41:01.119Z,17
2019-03-30T04:42:01.091Z,16
2019-03-30T04:44:01.095Z,17
2019-03-30T04:45:01.093Z,19
2019-03-30T04:46:01.127Z,18
2019-03-30T04:47:01.095Z,19
2019-03-30T04:49:01.095Z,18
2019-03-30T04:50:01.115Z,17
2019-03-30T04:53:01.924Z,18
2019-03-30T04:55:01.095Z,17
2019-03-30T04:56:01.121Z,15
2019-03-30T04:57:01.122Z,14
2019-03-30T04:58:01.100Z,15
2019-03-30T05:00:01.097Z,15
2019-03-30T05:01:01.132Z,16
2019-03-30T05:02:01.098Z,18
2019-03-30T05:03:01.101Z,17
2019-03-30T05:07:01.097Z,15
2019-03-30T05:09:01.097Z,14
2019-03-30T05:12:01.099Z,13
2019-03-30T05:13:01.099Z,16
2019-03-30T05:14:01.098Z,17
2019-03-30T05:15:01.100Z,18
2019-03-30T05:16:01.127Z,17
2019-03-30T05:18:01.085Z,20
2019-03-30T05:19:01.083Z,19
2019-03-30T05:20:01.095Z,17
2019-03-30T05:22:11.795Z,18
2019-03-30T05:23:01.083Z,16
2019-03-30T05:24:01.084Z,15
2019-03-30T05:26:01.085Z,16
2019-03-30T05:27:01.086Z,15
2019-03-30T05:28:01.085Z,16
2019-03-30T05:29:01.083Z,15
2019-03-30T05:30:01.084Z,16
2019-03-30T05:34:01.175Z,18
2019-03-30T05:36:01.150Z,19
2019-03-30T05:37:01.085Z,20
2019-03-30T05:38:01.516Z,19
2019-03-30T05:39:01.085Z,18
2019-03-30T05:40:01.085Z,17
2019-03-30T05:41:01.087Z,16
2019-03-30T05:42:01.089Z,14
2019-03-30T05:43:01.090Z,15
2019-03-30T05:45:01.089Z,15
2019-03-30T05:47:01.086Z,17
2019-03-30T05:48:01.093Z,19
2019-03-30T05:49:01.091Z,21
2019-03-30T05:53:01.946Z,17
2019-03-30T05:54:01.479Z,16
2019-03-30T05:55:01.089Z,17
2019-03-30T05:57:01.092Z,16
2019-03-30T05:58:01.092Z,19
2019-03-30T05:59:01.095Z,18
2019-03-30T06:00:01.096Z,18
2019-03-30T06:01:01.127Z,17
2019-03-30T06:02:01.096Z,19
2019-03-30T06:03:01.094Z,17
2019-03-30T06:04:01.094Z,16
2019-03-30T06:06:01.123Z,15
2019-03-30T06:07:01.121Z,14
2019-03-30T06:09:01.099Z,16
2019-03-30T06:10:01.216Z,15
2019-03-30T06:11:01.097Z,17
2019-03-30T06:12:06.105Z,19
2019-03-30T06:13:01.153Z,18
2019-03-30T06:14:01.226Z,19
2019-03-30T06:15:01.098Z,21
2019-03-30T06:16:01.096Z,19
2019-03-30T06:17:01.122Z,18
2019-03-30T06:19:01.104Z,17
2019-03-30T06:20:02.090Z,16
2019-03-30T06:21:01.096Z,17
2019-03-30T06:22:01.218Z,16
2019-03-30T06:24:01.103Z,17
2019-03-30T06:25:01.104Z,16
2019-03-30T06:27:01.130Z,17
2019-03-30T06:28:01.102Z,18
2019-03-30T06:29:01.101Z,16
2019-03-30T06:30:01.104Z,17
2019-03-30T06:32:01.124Z,15
2019-03-30T06:34:01.103Z,18
2019-03-30T06:36:01.102Z,17
2019-03-30T06:38:01.101Z,18
2019-03-30T06:40:01.131Z,16
2019-03-30T06:42:01.083Z,18
2019-03-30T06:44:01.084Z,16
2019-03-30T06:45:01.084Z,16
2019-03-30T06:46:01.103Z,17
2019-03-30T06:47:01.109Z,16
2019-03-30T06:49:01.085Z,18
2019-03-30T06:51:01.084Z,19
2019-03-30T06:52:01.114Z,18
2019-03-30T06:53:01.086Z,19
2019-03-30T06:54:01.084Z,18
2019-03-30T06:55:01.084Z,17
2019-03-30T06:56:01.119Z,15
2019-03-30T06:57:01.083Z,16
2019-03-30T06:58:01.082Z,15
2019-03-30T06:59:01.085Z,16
2019-03-30T07:00:01.085Z,17
2019-03-30T07:01:01.084Z,16
2019-03-30T07:02:01.086Z,15
2019-03-30T07:05:01.084Z,14
2019-03-30T07:06:02.026Z,15
2019-03-30T07:07:01.111Z,17
2019-03-30T07:08:01.085Z,18
2019-03-30T07:09:01.091Z,17
2019-03-30T07:10:01.090Z,18
2019-03-30T07:11:01.117Z,20
2019-03-30T07:12:01.084Z,19
2019-03-30T07:13:01.083Z,17
2019-03-30T07:15:01.097Z,17
2019-03-30T07:17:01.814Z,16
2019-03-30T07:22:01.131Z,17
2019-03-30T07:28:01.112Z,16
2019-03-30T07:29:01.087Z,17
2019-03-30T07:30:01.089Z,16
2019-03-30T07:36:01.089Z,17
2019-03-30T07:37:01.091Z,20
2019-03-30T07:39:01.085Z,21
2019-03-30T07:40:02.109Z,19
2019-03-30T07:41:01.086Z,17
2019-03-30T07:42:01.085Z,16
2019-03-30T07:43:01.091Z,15
2019-03-30T07:45:01.088Z,16
2019-03-30T07:46:01.087Z,17
2019-03-30T07:47:01.089Z,18
2019-03-30T07:50:01.116Z,22
2019-03-30T07:51:01.099Z,21
2019-03-30T07:52:01.089Z,20
2019-03-30T07:53:01.092Z,22
2019-03-30T07:55:01.089Z,21
2019-03-30T07:56:08.030Z,20
2019-03-30T07:58:01.139Z,17
2019-03-30T07:59:01.090Z,18
2019-03-30T08:00:01.105Z,17
2019-03-30T08:02:01.094Z,16
2019-03-30T08:05:01.093Z,17
2019-03-30T08:07:01.119Z,18
2019-03-30T08:08:01.096Z,19
2019-03-30T08:09:01.128Z,18
2019-03-30T08:10:01.095Z,17
2019-03-30T08:11:01.097Z,18
2019-03-30T08:12:01.095Z,17
2019-03-30T08:13:01.099Z,18
2019-03-30T08:14:01.132Z,19
2019-03-30T08:15:01.097Z,20
2019-03-30T08:16:01.100Z,18
2019-03-30T08:18:01.098Z,16
2019-03-30T08:19:01.133Z,17
2019-03-30T08:20:01.097Z,15
2019-03-30T08:23:01.098Z,14
2019-03-30T08:24:01.131Z,13
2019-03-30T08:25:01.097Z,14
2019-03-30T08:26:01.097Z,15
2019-03-30T08:27:01.656Z,16
2019-03-30T08:28:01.098Z,18
2019-03-30T08:29:01.130Z,20
2019-03-30T08:30:01.104Z,20
2019-03-30T08:31:01.100Z,19
2019-03-30T08:34:01.133Z,18
2019-03-30T08:35:01.104Z,16
2019-03-30T08:36:01.100Z,17
2019-03-30T08:37:01.100Z,16
2019-03-30T08:38:01.100Z,15
2019-03-30T08:40:01.101Z,16
2019-03-30T08:41:01.102Z,17
2019-03-30T08:45:01.128Z,14
2019-03-30T08:46:01.085Z,12
2019-03-30T08:49:01.150Z,13
2019-03-30T08:50:01.084Z,15
2019-03-30T08:51:01.087Z,17
2019-03-30T08:52:01.085Z,18
2019-03-30T08:53:01.089Z,15
2019-03-30T08:54:01.087Z,16
2019-03-30T08:55:01.089Z,17
2019-03-30T08:56:01.087Z,18
2019-03-30T08:57:01.087Z,17
2019-03-30T08:58:01.091Z,18
2019-03-30T08:59:01.088Z,19
2019-03-30T09:00:01.140Z,19
2019-03-30T09:01:01.086Z,18
2019-03-30T09:03:01.091Z,19
2019-03-30T09:04:01.089Z,17
2019-03-30T09:05:01.113Z,16
2019-03-30T09:06:01.089Z,17
2019-03-30T09:08:01.088Z,18
2019-03-30T09:09:01.088Z,17
2019-03-30T09:11:01.115Z,16
2019-03-30T09:12:01.090Z,15
2019-03-30T09:13:01.105Z,14
2019-03-30T09:14:01.090Z,16
2019-03-30T09:15:01.093Z,17
2019-03-30T09:17:01.114Z,16
2019-03-30T09:19:01.095Z,15
2019-03-30T09:21:01.124Z,14
2019-03-30T09:22:01.090Z,15
2019-03-30T09:23:01.092Z,14
2019-03-30T09:24:09.217Z,15
2019-03-30T09:25:01.099Z,16
2019-03-30T09:27:01.117Z,15
2019-03-30T09:28:01.092Z,17
2019-03-30T09:29:01.092Z,16
2019-03-30T09:30:01.157Z,16
2019-03-30T09:34:01.101Z,15
2019-03-30T09:35:01.093Z,14
2019-03-30T09:37:01.131Z,16
2019-03-30T09:40:01.093Z,17
2019-03-30T09:41:01.096Z,15
2019-03-30T09:42:01.129Z,17
2019-03-30T09:43:01.095Z,16
2019-03-30T09:44:01.098Z,17
2019-03-30T09:45:01.096Z,18
2019-03-30T09:46:01.098Z,20
2019-03-30T09:49:01.104Z,19
2019-03-30T09:50:02.585Z,18
2019-03-30T09:51:01.100Z,17
2019-03-30T09:52:01.099Z,15
2019-03-30T09:53:01.295Z,14
2019-03-30T09:54:01.098Z,15
2019-03-30T09:55:01.097Z,16
2019-03-30T09:58:02.342Z,17
2019-03-30T09:59:01.099Z,16
2019-03-30T10:00:01.108Z,16
2019-03-30T10:01:01.102Z,15
2019-03-30T10:04:01.235Z,16
2019-03-30T10:05:01.101Z,15
2019-03-30T10:06:01.100Z,16
2019-03-30T10:08:01.087Z,17
2019-03-30T10:09:01.120Z,16
2019-03-30T10:10:01.147Z,14
2019-03-30T10:11:01.092Z,15
2019-03-30T10:12:01.150Z,14
2019-03-30T10:14:01.084Z,15
2019-03-30T10:15:01.084Z,18
2019-03-30T10:16:01.086Z,17
2019-03-30T10:18:01.085Z,18
2019-03-30T10:19:02.074Z,16
2019-03-30T10:20:04.448Z,15
2019-03-30T10:21:01.084Z,16
2019-03-30T10:22:01.086Z,15
2019-03-30T10:23:01.085Z,13
2019-03-30T10:24:02.114Z,15
2019-03-30T10:26:01.115Z,14
2019-03-30T10:27:01.088Z,16
2019-03-30T10:30:01.089Z,16
2019-03-30T10:31:01.085Z,17
2019-03-30T10:32:01.085Z,16
2019-03-30T10:33:01.086Z,17
2019-03-30T10:34:01.153Z,16
2019-03-30T10:35:01.090Z,17
2019-03-30T10:36:01.113Z,15
2019-03-30T10:37:01.085Z,14
2019-03-30T10:38:01.085Z,15
2019-03-30T10:40:01.928Z,14
2019-03-30T10:42:01.111Z,17
2019-03-30T10:45:01.090Z,18
2019-03-30T10:46:01.086Z,19
2019-03-30T10:47:01.118Z,17
2019-03-30T10:49:01.084Z,18
2019-03-30T10:50:01.086Z,16
2019-03-30T10:51:01.086Z,15
2019-03-30T10:52:01.118Z,16
2019-03-30T10:54:01.085Z,17
2019-03-30T10:55:01.085Z,19
2019-03-30T10:56:01.088Z,18
2019-03-30T10:57:01.088Z,17
2019-03-30T10:58:01.112Z,15
2019-03-30T10:59:01.088Z,14
2019-03-30T11:00:01.087Z,14
2019-03-30T11:01:01.085Z,16
2019-03-30T11:02:01.086Z,17
2019-03-30T11:03:01.132Z,18
2019-03-30T11:04:01.086Z,20
2019-03-30T11:05:01.085Z,18
2019-03-30T11:06:02.275Z,19
2019-03-30T11:09:01.085Z,17
2019-03-30T11:10:01.085Z,18
2019-03-30T11:11:01.086Z,16
2019-03-30T11:12:01.086Z,15
2019-03-30T11:13:01.086Z,14
2019-03-30T11:14:01.149Z,15
2019-03-30T11:15:01.086Z,16
2019-03-30T11:16:01.093Z,15
2019-03-30T11:18:01.084Z,16
2019-03-30T11:19:01.084Z,15
2019-03-30T11:20:01.086Z,13
2019-03-30T11:21:01.086Z,16
2019-03-30T11:22:03.123Z,17
2019-03-30T11:23:02.064Z,16
2019-03-30T11:24:01.094Z,18
2019-03-30T11:25:07.601Z,19
2019-03-30T11:26:01.087Z,18
2019-03-30T11:27:01.088Z,17
2019-03-30T11:30:01.115Z,18
2019-03-30T11:32:01.087Z,17
2019-03-30T11:33:01.646Z,16
2019-03-30T11:34:01.092Z,15
2019-03-30T11:35:01.123Z,14
2019-03-30T11:37:01.093Z,16
2019-03-30T11:39:01.087Z,18
2019-03-30T11:40:01.089Z,17
2019-03-30T11:41:01.123Z,16
2019-03-30T11:42:01.088Z,14
2019-03-30T11:43:01.089Z,15
2019-03-30T11:44:01.088Z,13
2019-03-30T11:45:01.091Z,14
2019-03-30T11:46:01.091Z,15
2019-03-30T11:48:01.115Z,16
2019-03-30T11:49:01.092Z,17
2019-03-30T11:51:01.092Z,19
2019-03-30T11:52:01.855Z,18
2019-03-30T11:53:01.125Z,17
2019-03-30T11:54:01.092Z,18
2019-03-30T11:55:01.096Z,17
2019-03-30T11:56:01.121Z,15
2019-03-30T11:57:01.094Z,17
2019-03-30T11:58:01.091Z,18
2019-03-30T11:59:01.091Z,17
2019-03-30T12:00:01.093Z,16
2019-03-30T12:02:01.118Z,15
2019-03-30T12:05:01.094Z,16
2019-03-30T12:08:01.122Z,15
2019-03-30T12:11:01.097Z,17
2019-03-30T12:13:01.108Z,18
2019-03-30T12:14:01.085Z,19
2019-03-30T12:15:01.090Z,19
2019-03-30T12:16:01.084Z,20
2019-03-30T12:17:01.116Z,17
2019-03-30T12:18:01.085Z,18
2019-03-30T12:19:01.084Z,15
2019-03-30T12:22:01.086Z,16
2019-03-30T12:23:01.111Z,15
2019-03-30T12:24:01.085Z,16
2019-03-30T12:26:01.086Z,15
2019-03-30T12:27:01.087Z,16
2019-03-30T12:28:01.113Z,15
2019-03-30T12:29:01.095Z,16
2019-03-30T12:30:01.121Z,18
2019-03-30T12:31:01.088Z,19
2019-03-30T12:32:01.087Z,18
2019-03-30T12:36:01.120Z,16
2019-03-30T12:37:01.089Z,19
2019-03-30T12:38:01.089Z,18
2019-03-30T12:39:01.091Z,17
2019-03-30T12:40:01.089Z,16
2019-03-30T12:41:01.090Z,18
2019-03-30T12:42:01.115Z,16
2019-03-30T12:44:01.091Z,17
2019-03-30T12:45:01.089Z,17
2019-03-30T12:46:01.087Z,15
2019-03-30T12:47:01.122Z,16
2019-03-30T12:48:01.091Z,15
2019-03-30T12:49:01.096Z,17
2019-03-30T12:50:01.095Z,16
2019-03-30T12:51:01.091Z,18
2019-03-30T12:52:01.091Z,17
2019-03-30T12:53:01.128Z,18
2019-03-30T12:54:01.091Z,17
2019-03-30T12:56:01.091Z,16
2019-03-30T12:57:01.091Z,15
2019-03-30T12:59:01.093Z,14
2019-03-30T13:00:02.496Z,15
2019-03-30T13:02:01.095Z,18
2019-03-30T13:04:01.090Z,21
2019-03-30T13:05:01.095Z,20
2019-03-30T13:07:01.090Z,17
2019-03-30T13:10:01.092Z,18
2019-03-30T13:12:01.098Z,20
2019-03-30T13:15:01.096Z,18
2019-03-30T13:16:01.098Z,16
2019-03-30T13:17:01.101Z,14
2019-03-30T13:18:02.002Z,12
2019-03-30T13:21:01.102Z,13
2019-03-30T13:22:01.097Z,14
2019-03-30T13:25:01.114Z,15
2019-03-30T13:27:01.093Z,16
2019-03-30T13:28:01.121Z,17
2019-03-30T13:30:01.095Z,18
2019-03-30T13:31:01.100Z,19
2019-03-30T13:32:01.094Z,17
2019-03-30T13:34:01.096Z,16
2019-03-30T13:36:01.096Z,17
2019-03-30T13:38:01.129Z,16
2019-03-30T13:39:01.100Z,18
2019-03-30T13:40:01.096Z,16
2019-03-30T13:42:01.099Z,17
2019-03-30T13:44:01.096Z,16
2019-03-30T13:45:03.338Z,15
2019-03-30T13:46:01.112Z,14
2019-03-30T13:47:01.099Z,15
2019-03-30T13:49:01.101Z,16
2019-03-30T13:50:01.097Z,17
2019-03-30T13:52:01.135Z,15
2019-03-30T13:53:01.098Z,14
2019-03-30T13:54:01.098Z,15
2019-03-30T13:55:01.103Z,14
2019-03-30T13:57:01.134Z,15
2019-03-30T13:59:01.101Z,13
2019-03-30T14:00:01.118Z,14
2019-03-30T14:01:01.101Z,16
2019-03-30T14:03:01.116Z,15
2019-03-30T14:04:01.084Z,16
2019-03-30T14:05:01.086Z,20
2019-03-30T14:06:01.087Z,19
2019-03-30T14:07:01.087Z,20
2019-03-30T14:09:01.090Z,19
2019-03-30T14:15:01.088Z,18
2019-03-30T14:17:02.191Z,16
2019-03-30T14:18:01.114Z,17
2019-03-30T14:20:01.099Z,16
2019-03-30T14:23:01.117Z,15
2019-03-30T14:25:01.088Z,16
2019-03-30T14:26:01.089Z,18
2019-03-30T14:27:01.088Z,17
2019-03-30T14:28:01.115Z,16
2019-03-30T14:30:01.091Z,18
2019-03-30T14:31:01.090Z,17
2019-03-30T14:32:01.091Z,18
2019-03-30T14:33:01.114Z,20
2019-03-30T14:34:01.134Z,22
2019-03-30T14:35:01.973Z,20
2019-03-30T14:37:01.090Z,18
2019-03-30T14:39:01.122Z,15
2019-03-30T14:41:03.750Z,16
2019-03-30T14:42:01.090Z,18
2019-03-30T14:45:01.092Z,21
2019-03-30T14:47:01.092Z,18
2019-03-30T14:48:01.118Z,19
2019-03-30T14:50:01.098Z,17
2019-03-30T14:53:01.119Z,16
2019-03-30T14:54:01.093Z,15
2019-03-30T14:55:01.099Z,14
2019-03-30T14:57:01.126Z,16
2019-03-30T15:00:01.103Z,18
2019-03-30T15:01:03.185Z,16
2019-03-30T15:02:01.432Z,18
2019-03-30T15:03:01.094Z,16
2019-03-30T15:04:01.096Z,17
2019-03-30T15:05:01.639Z,15
2019-03-30T15:06:01.095Z,16
2019-03-30T15:07:01.120Z,15
2019-03-30T15:10:01.095Z,16
2019-03-30T15:11:01.094Z,18
2019-03-30T15:12:01.135Z,17
2019-03-30T15:13:01.095Z,18
2019-03-30T15:15:01.117Z,19
2019-03-30T15:16:01.095Z,18
2019-03-30T15:17:01.129Z,17
2019-03-30T15:18:01.095Z,16
2019-03-30T15:20:01.096Z,14
2019-03-30T15:21:01.115Z,16
2019-03-30T15:22:01.256Z,18
2019-03-30T15:24:01.085Z,19
2019-03-30T15:25:01.084Z,18
2019-03-30T15:26:01.083Z,16
2019-03-30T15:27:01.081Z,15
2019-03-30T15:28:01.107Z,14
2019-03-30T15:29:01.085Z,13
2019-03-30T15:30:01.084Z,14
2019-03-30T15:32:01.101Z,16
2019-03-30T15:34:01.112Z,17
2019-03-30T15:37:01.092Z,15
2019-03-30T15:38:01.125Z,16
2019-03-30T15:39:01.086Z,17
2019-03-30T15:40:01.088Z,19
2019-03-30T15:41:01.087Z,20
2019-03-30T15:42:01.088Z,23
2019-03-30T15:43:01.092Z,22
2019-03-30T15:45:01.089Z,19
2019-03-30T15:47:01.089Z,18
2019-03-30T15:48:01.091Z,17
2019-03-30T15:49:01.153Z,16
2019-03-30T15:51:01.093Z,17
2019-03-30T15:54:01.204Z,18
2019-03-30T15:57:13.425Z,16
2019-03-30T15:58:01.126Z,17
2019-03-30T15:59:01.096Z,16
2019-03-30T16:00:01.103Z,17
2019-03-30T16:01:01.100Z,18
2019-03-30T16:02:01.221Z,19
2019-03-30T16:04:02.584Z,20
2019-03-30T16:06:01.094Z,18
2019-03-30T16:07:01.094Z,17
2019-03-30T16:08:01.123Z,16
2019-03-30T16:10:01.095Z,17
2019-03-30T16:12:01.098Z,18
2019-03-30T16:13:01.126Z,19
2019-03-30T16:14:01.099Z,18
2019-03-30T16:15:01.100Z,19
2019-03-30T16:16:01.096Z,20
2019-03-30T16:17:01.104Z,21
2019-03-30T16:18:06.110Z,20
2019-03-30T16:19:01.099Z,19
2019-03-30T16:20:01.109Z,18
2019-03-30T16:21:01.101Z,16
2019-03-30T16:22:01.097Z,15
2019-03-30T16:23:06.107Z,16
2019-03-30T16:25:01.100Z,15
2019-03-30T16:26:01.098Z,17
2019-03-30T16:28:01.131Z,16
2019-03-30T16:30:02.173Z,17
2019-03-30T16:31:01.100Z,15
2019-03-30T16:32:01.099Z,17
2019-03-30T16:33:01.142Z,18
2019-03-30T16:34:01.099Z,17
2019-03-30T16:35:01.102Z,16
2019-03-30T16:36:02.753Z,17
2019-03-30T16:38:01.082Z,15
2019-03-30T16:41:01.084Z,17
2019-03-30T16:42:01.083Z,18
2019-03-30T16:43:01.084Z,17
2019-03-30T16:44:01.085Z,18
2019-03-30T16:45:02.255Z,18
2019-03-30T16:46:01.545Z,19
2019-03-30T16:47:01.084Z,17
2019-03-30T16:48:01.085Z,21
2019-03-30T16:49:01.171Z,20
2019-03-30T16:51:01.088Z,19
2019-03-30T16:52:01.095Z,20
2019-03-30T16:53:01.086Z,19
2019-03-30T16:56:01.128Z,17
2019-03-30T16:57:01.087Z,16
2019-03-30T16:59:01.090Z,14
2019-03-30T17:00:01.102Z,15
2019-03-30T17:01:01.097Z,16
2019-03-30T17:04:01.090Z,18
2019-03-30T17:05:01.090Z,16
2019-03-30T17:06:01.090Z,17
2019-03-30T17:08:01.095Z,16
2019-03-30T17:10:01.101Z,18
2019-03-30T17:11:01.093Z,19
2019-03-30T17:13:01.096Z,20
2019-03-30T17:14:01.095Z,19
2019-03-30T17:15:01.184Z,17
2019-03-30T17:16:01.128Z,15
2019-03-30T17:17:01.100Z,13
2019-03-30T17:19:01.097Z,11
2019-03-30T17:20:01.091Z,12
2019-03-30T17:21:01.125Z,13
2019-03-30T17:22:01.094Z,15
2019-03-30T17:23:01.096Z,16
2019-03-30T17:24:01.092Z,19
2019-03-30T17:25:01.093Z,21
2019-03-30T17:26:01.096Z,20
2019-03-30T17:28:01.097Z,19
2019-03-30T17:29:01.093Z,20
2019-03-30T17:30:01.092Z,19
2019-03-30T17:31:01.091Z,21
2019-03-30T17:32:02.879Z,22
2019-03-30T17:34:06.101Z,20
2019-03-30T17:35:01.104Z,18
2019-03-30T17:36:01.096Z,17
2019-03-30T17:37:01.096Z,15
2019-03-30T17:38:01.100Z,14
2019-03-30T17:41:01.099Z,17
2019-03-30T17:43:01.106Z,18
2019-03-30T17:44:06.099Z,17
2019-03-30T17:45:01.096Z,18
2019-03-30T17:47:01.105Z,19
2019-03-30T17:48:01.171Z,20
2019-03-30T17:51:01.098Z,19
2019-03-30T17:52:01.100Z,17
2019-03-30T17:53:01.168Z,16
2019-03-30T17:57:01.149Z,15
2019-03-30T17:59:01.080Z,16
2019-03-30T18:00:01.081Z,17
2019-03-30T18:01:01.085Z,18
2019-03-30T18:02:01.083Z,19
2019-03-30T18:03:01.081Z,20
2019-03-30T18:04:01.081Z,19
2019-03-30T18:05:01.086Z,20
2019-03-30T18:06:01.082Z,18
2019-03-30T18:07:01.081Z,16
2019-03-30T18:09:01.086Z,15
2019-03-30T18:10:03.367Z,16
2019-03-30T18:11:03.839Z,18
2019-03-30T18:12:01.085Z,19
2019-03-30T18:14:01.085Z,21
2019-03-30T18:15:01.086Z,18
2019-03-30T18:16:01.085Z,17
2019-03-30T18:17:01.087Z,18
2019-03-30T18:18:01.087Z,17
2019-03-30T18:19:01.086Z,16
2019-03-30T18:21:01.110Z,17
2019-03-30T18:24:01.089Z,19
2019-03-30T18:25:01.090Z,17
2019-03-30T18:26:01.111Z,18
2019-03-30T18:27:01.086Z,16
2019-03-30T18:28:01.088Z,17
2019-03-30T18:29:01.090Z,16
2019-03-30T18:30:01.090Z,18
2019-03-30T18:31:01.118Z,17
2019-03-30T18:33:01.118Z,16
2019-03-30T18:34:01.093Z,17
2019-03-30T18:35:01.098Z,15
2019-03-30T18:37:01.090Z,16
2019-03-30T18:38:01.118Z,14
2019-03-30T18:39:09.097Z,16
2019-03-30T18:40:01.090Z,17
2019-03-30T18:41:01.090Z,18
2019-03-30T18:43:02.297Z,19
2019-03-30T18:44:02.246Z,18
2019-03-30T18:45:01.094Z,17
2019-03-30T18:47:01.101Z,19
2019-03-30T18:48:01.093Z,20
2019-03-30T18:49:01.119Z,19
2019-03-30T18:52:01.093Z,16
2019-03-30T18:53:02.211Z,17
2019-03-30T18:54:01.090Z,18
2019-03-30T18:55:01.102Z,17
2019-03-30T18:57:01.091Z,18
2019-03-30T18:58:01.091Z,16
2019-03-30T18:59:01.091Z,15
2019-03-30T19:00:01.104Z,17
2019-03-30T19:03:01.136Z,19
2019-03-30T19:04:01.434Z,20
2019-03-30T19:08:01.127Z,18
2019-03-30T19:09:01.939Z,17
2019-03-30T19:12:01.094Z,18
2019-03-30T19:14:01.124Z,16
2019-03-30T19:15:01.095Z,16
2019-03-30T19:18:01.097Z,17
2019-03-30T19:19:01.137Z,19
2019-03-30T19:20:01.107Z,17
2019-03-30T19:21:01.099Z,18
2019-03-30T19:22:01.098Z,19
2019-03-30T19:23:01.100Z,18
2019-03-30T19:24:01.129Z,19
2019-03-30T19:26:01.170Z,21
2019-03-30T19:27:01.097Z,19
2019-03-30T19:29:01.147Z,20
2019-03-30T19:30:01.125Z,21
2019-03-30T19:31:01.086Z,20
2019-03-30T19:34:02.005Z,18
2019-03-30T19:35:01.083Z,16
2019-03-30T19:37:01.087Z,15
2019-03-30T19:41:01.125Z,16
2019-03-30T19:45:01.091Z,15
2019-03-30T19:46:01.091Z,13
2019-03-30T19:47:01.091Z,16
2019-03-30T19:49:01.091Z,17
2019-03-30T19:51:01.142Z,21
2019-03-30T19:52:01.094Z,19
2019-03-30T19:53:01.885Z,17
2019-03-30T19:55:01.092Z,18
2019-03-30T19:56:01.130Z,16
2019-03-30T19:57:01.123Z,15
2019-03-30T20:00:01.096Z,13
2019-03-30T20:01:01.121Z,15
2019-03-30T20:02:01.121Z,16
2019-03-30T20:05:01.095Z,18
2019-03-30T20:07:01.121Z,17
2019-03-30T20:08:11.399Z,19
2019-03-30T20:09:01.099Z,18
2019-03-30T20:10:01.096Z,17
2019-03-30T20:11:01.355Z,16
2019-03-30T20:15:01.105Z,17
2019-03-30T20:16:01.129Z,15
2019-03-30T20:17:01.096Z,17
2019-03-30T20:18:01.097Z,15
2019-03-30T20:19:11.840Z,16
2019-03-30T20:23:01.099Z,15